Hodges, MT

5:56 AM MST on December 07, 2016 (GMT -0700)
| | Change Station
Active Advisory: Wind Chill Advisory

Elev -9999 ft 0.00 °N, 0.00 °E | Updated

Partly Cloudy
Partly Cloudy
4 °F
Feels Like -15 °F
N
15
Wind Variable Wind from WNW
Gusts 25 mph

Today
High -- | Low -- °F
--% Chance of Precip.
Yesterday
High -- | Low -- °F
Precip. -- in
Pressure 30.29 in
Visibility 5.0 miles
Clouds Few 600 ft
Overcast 1900 ft
Windchill -15 °F
Dew Point -4 °F
Humidity 71%
Rainfall --
Snow Depth Not available.
7:29 AM 4:08 PM
First Quarter, 52% visible
METAR K20U 071235Z AUTO 30019G24KT 5SM -RA FEW006 OVC019 M17/M18 A3029 RMK AO2
Pressure 30.29 in
Visibility 5.0 miles
Clouds Few 600 ft
Overcast 1900 ft
Windchill -15 °F
Dew Point -4 °F
Humidity 71%
Rainfall --
Snow Depth Not available.
7:29 AM 4:08 PM
First Quarter, 52% visible
METAR K20U 071235Z AUTO 30019G24KT 5SM -RA FEW006 OVC019 M17/M18 A3029 RMK AO2

10-Day Weather Forecast

Almanac

Astronomy

Dec. 07, 2016 Rise Set
Actual Time
Civil Twilight
Nautical Twilight
Astronomical Twilight
Moon
Length of Visible Light
Length of Day
Tomorrow will be .
, % of the Moon is Illuminated

Today's Extremes

State Highs State Lows

Community

WunderPhotos

Upload Photos

1,956,112 photos uploaded!

WunderBlog® & News

Nearby

Air Quality

  Air Quality AQ Index Pollutant
Not available.

Snow Depth

Station Depth Elevation

Earthquake Activity

City Distance Mag. Time & Date
Minimum magnitude displayed is 2.5.

Coastal Water Temperatures

Place Temperature

Stations

Nearby Weather Stations

Station Location Temp. Windchill Dew Point Humidity Wind Precip. Elev Updated Type
                   

Watches & Warnings

Wind Chill Advisory
Issued: 3:26 AM MST Dec. 7, 2016 – National Weather Service

... Wind Chill Advisory remains in effect until 11 am MST this
morning...

* winds... northwest 10 to 20 mph with gusts up to 30 mph.

* Temperatures... 4 below to 2 above zero.

* Wind chills... 20 below to 30 below zero.

* Timing... until 11 am MST today.

* Impacts... exposed skin can be frostbitten after 30 minutes of
exposure.

Precautionary/preparedness actions...

Try to dress adequately. Be sure to wear layered light weight and
wind proof clothing... and wear a hat and mittens for protection
from the dangers of frostbite.